NCAR-RAP Real-Time Weather Data

Output produced by METARs form (26 May 2022  09:05 UTC)
found at http://weather.rap.ucar.edu/surface/
 
Conditions at: KSPI observed 26 May 2022  07:52 UTC
Temperature: 19.4°C (67°F)
Dewpoint: 18.3°C (65°F) [RH = 93%]
Pressure (altimeter): 29.76 inches Hg (1007.9 mb)
[Sea-level pressure: 1007.3 mb]
Winds: from the SSE (150 degrees) at 9 MPH (8 knots; 4.2 m/s)
Visibility: 10 or more miles (16+ km)
Ceiling: at least 12,000 feet AGL
Clouds: sky clear below 12,000 feet AGL
Present Weather: automated observation with no human augmentation;
there may or may not be significant weather present at this time
KSPI 260752Z AUTO 15008KT 10SM CLR 19/18 A2976 RMK AO2 SLP073 T01940183